Time;durP1;ratioP1;P1;durP2;ratioP2;P2;SDS_P1;SDS_P2;PMS_P1;PMS_P2;Temp;Humidity;BMP_temperature;BMP_pressure;BME280_temperature;BME280_humidity;BME280_pressure;Samples;Min_cycle;Max_cycle;Signal;HPM_P1;HPM_P2
2021/04/22 00:02:26;;;;;;;25.20;16.60;;;;;;;10.83;47.82;99498.94;115521;1199;103088;-78
2021/04/22 00:04:53;;;;;;;23.00;16.20;;;;;;;10.82;48.19;99502.45;115300;1199;102986;-77
2021/04/22 00:07:20;;;;;;;27.33;17.57;;;;;;;10.80;48.41;99501.69;115283;1200;103107;-77
2021/04/22 00:09:49;;;;;;;24.87;17.33;;;;;;;10.78;48.47;99513.95;115256;1199;103149;-78
2021/04/22 00:12:16;;;;;;;24.13;16.57;;;;;;;10.74;48.69;99509.77;115290;1199;103156;-78
2021/04/22 00:14:43;;;;;;;25.17;17.40;;;;;;;10.71;49.02;99512.52;115321;1199;103054;-77
2021/04/22 00:17:11;;;;;;;23.20;17.30;;;;;;;10.67;49.16;99517.94;115276;1199;102976;-78
2021/04/22 00:19:39;;;;;;;29.17;18.67;;;;;;;10.62;49.49;99507.72;115471;1199;102011;-78
2021/04/22 00:22:06;;;;;;;22.53;17.47;;;;;;;10.59;49.74;99505.22;115276;1199;103033;-78
2021/04/22 00:24:33;;;;;;;24.60;17.15;;;;;;;10.55;49.87;99506.27;115398;1198;103053;-78
2021/04/22 00:27:00;;;;;;;24.30;17.65;;;;;;;10.53;49.99;99508.11;115311;1198;103037;-78
2021/04/22 00:29:27;;;;;;;25.05;18.30;;;;;;;10.49;50.28;99523.05;115302;1199;102996;-78
2021/04/22 00:31:54;;;;;;;25.95;17.93;;;;;;;10.46;50.42;99517.12;115331;1199;102995;-77
2021/04/22 00:34:21;;;;;;;24.00;17.83;;;;;;;10.43;50.55;99514.65;115331;1199;102974;-78
2021/04/22 00:36:48;;;;;;;27.23;17.80;;;;;;;10.38;50.55;99513.97;115359;1198;103149;-77
2021/04/22 00:39:16;;;;;;;27.57;17.67;;;;;;;10.35;51.04;99522.78;115566;1200;102969;-77
2021/04/22 00:41:43;;;;;;;22.10;17.17;;;;;;;10.29;51.27;99518.69;115302;1199;103057;-77
2021/04/22 00:44:10;;;;;;;21.03;16.27;;;;;;;10.23;51.42;99529.38;115508;1199;103005;-78
2021/04/22 00:46:39;;;;;;;24.90;17.27;;;;;;;10.19;52.19;99526.91;115586;1199;103475;-78
2021/04/22 00:49:06;;;;;;;23.93;15.77;;;;;;;10.12;52.16;99536.75;115652;1199;103219;-77
2021/04/22 00:51:34;;;;;;;21.07;15.00;;;;;;;10.08;52.65;99542.16;115466;1198;103016;-77
2021/04/22 00:54:01;;;;;;;21.67;15.03;;;;;;;10.02;52.58;99532.81;115456;1197;102996;-77
2021/04/22 00:56:30;;;;;;;20.70;14.20;;;;;;;9.98;53.04;99534.70;115297;1199;103223;-78
2021/04/22 00:58:57;;;;;;;21.83;15.10;;;;;;;9.95;53.15;99533.99;115535;1198;103082;-77
2021/04/22 01:01:25;;;;;;;20.60;14.47;;;;;;;9.92;53.46;99539.33;115274;1197;103114;-78
2021/04/22 01:03:53;;;;;;;19.90;14.57;;;;;;;9.89;53.83;99545.52;115572;1199;103565;-77
2021/04/22 01:06:21;;;;;;;18.95;13.30;;;;;;;9.86;53.70;99547.38;115259;1199;103082;-77
2021/04/22 01:08:49;;;;;;;18.50;14.13;;;;;;;9.84;54.14;99529.20;115293;1197;103142;-77
2021/04/22 01:11:16;;;;;;;17.63;13.73;;;;;;;9.83;53.93;99521.45;115300;1199;103105;-78
2021/04/22 01:13:43;;;;;;;16.63;12.70;;;;;;;9.83;53.98;99531.88;115278;1198;103056;-78
2021/04/22 01:16:10;;;;;;;18.23;12.67;;;;;;;9.79;53.88;99530.31;115555;1199;103446;-78
2021/04/22 01:18:38;;;;;;;16.97;12.90;;;;;;;9.78;53.87;99545.09;115355;1199;103110;-77
2021/04/22 01:21:11;;;;;;;17.67;13.07;;;;;;;9.75;54.10;99550.42;115294;1199;104381;-78
2021/04/22 01:23:39;;;;;;;16.75;12.55;;;;;;;9.74;53.95;99553.09;115351;1199;103046;-78
2021/04/22 01:26:06;;;;;;;15.20;11.83;;;;;;;9.72;54.12;99558.37;115290;1199;103018;-77
2021/04/22 01:28:33;;;;;;;18.80;12.05;;;;;;;9.73;54.42;99564.42;115295;1199;103112;-78
2021/04/22 01:31:00;;;;;;;17.65;12.90;;;;;;;9.72;54.55;99566.17;115317;1199;103440;-78
2021/04/22 01:33:28;;;;;;;16.70;12.87;;;;;;;9.71;54.53;99563.64;115275;1199;103028;-78
2021/04/22 01:35:59;;;;;;;17.08;12.98;;;;;;;9.66;54.71;99553.38;115386;1200;103043;-77
2021/04/22 01:38:27;;;;;;;16.03;11.53;;;;;;;9.61;54.79;99561.38;115337;1199;102986;-78
2021/04/22 01:40:55;;;;;;;16.90;11.53;;;;;;;9.56;54.82;99568.53;115310;1199;103091;-78
2021/04/22 01:43:22;;;;;;;16.30;12.40;;;;;;;9.52;54.88;99571.31;115295;1199;103053;-78
2021/04/22 01:45:49;;;;;;;17.43;12.30;;;;;;;9.45;54.68;99560.27;115313;1199;103133;-78
2021/04/22 01:48:17;;;;;;;16.63;11.47;;;;;;;9.39;54.45;99560.52;115347;1198;103168;-78
2021/04/22 01:50:44;;;;;;;15.00;10.40;;;;;;;9.34;54.68;99549.45;115351;1197;103114;-78
2021/04/22 01:53:12;;;;;;;13.27;10.40;;;;;;;9.28;54.77;99557.46;115337;1198;103066;-77
2021/04/22 01:55:42;;;;;;;14.40;10.83;;;;;;;9.19;54.41;99570.83;115519;1199;102986;-77
2021/04/22 01:58:17;;;;;;;14.53;10.13;;;;;;;9.13;54.54;99581.44;115257;1199;102909;-78
2021/04/22 02:00:49;;;;;;;11.93;9.53;;;;;;;9.04;54.81;99587.84;115342;1199;103072;-78
2021/04/22 02:03:17;;;;;;;11.40;8.57;;;;;;;8.97;54.69;99584.59;115310;1197;103133;-77
2021/04/22 02:05:45;;;;;;;12.53;9.00;;;;;;;8.93;54.73;99583.02;115329;1200;103002;-77
2021/04/22 02:08:13;;;;;;;11.20;8.40;;;;;;;8.86;55.00;99578.95;115580;1199;101879;-77
2021/04/22 02:10:42;;;;;;;12.63;9.23;;;;;;;8.82;54.56;99592.97;115429;1199;103245;-77
2021/04/22 02:13:12;;;;;;;16.57;8.50;;;;;;;8.76;54.83;99593.17;115448;1199;102816;-77
2021/04/22 02:15:40;;;;;;;10.13;8.17;;;;;;;8.69;54.63;99592.55;115298;1199;103104;-77
2021/04/22 02:18:08;;;;;;;11.17;8.27;;;;;;;8.64;54.72;99596.22;115327;1199;103012;-77
2021/04/22 02:20:35;;;;;;;13.55;9.35;;;;;;;8.58;54.84;99599.00;115348;1199;103211;-78
2021/04/22 02:23:04;;;;;;;11.73;8.67;;;;;;;8.51;54.90;99593.18;115254;1200;103237;-78
2021/04/22 02:25:31;;;;;;;12.03;8.07;;;;;;;8.48;55.44;99593.29;115351;1199;103005;-77
2021/04/22 02:27:59;;;;;;;11.73;8.77;;;;;;;8.42;55.13;99603.88;115332;1199;103092;-77
2021/04/22 02:30:29;;;;;;;12.13;8.47;;;;;;;8.39;55.51;99620.41;115362;1199;103034;-76
2021/04/22 02:33:01;;;;;;;11.37;8.70;;;;;;;8.36;55.62;99606.69;115370;1199;103059;-77
2021/04/22 02:35:31;;;;;;;12.97;9.23;;;;;;;8.34;55.54;99608.48;115274;1200;102999;-78
2021/04/22 02:38:00;;;;;;;11.17;8.63;;;;;;;8.29;55.31;99611.21;115388;1198;103120;-78
2021/04/22 02:40:31;;;;;;;14.03;9.20;;;;;;;8.26;55.90;99613.92;115446;1200;103083;-77
2021/04/22 02:43:00;;;;;;;13.27;10.33;;;;;;;8.23;56.27;99615.73;115511;1200;103098;-78
2021/04/22 02:45:38;;;;;;;14.30;10.67;;;;;;;8.19;56.90;99622.79;115293;1200;103048;-77
2021/04/22 02:48:06;;;;;;;15.37;11.60;;;;;;;8.15;56.95;99626.39;115311;1199;102996;-78
2021/04/22 02:50:35;;;;;;;15.77;11.03;;;;;;;8.13;57.46;99642.03;115247;1198;102996;-77
2021/04/22 02:53:05;;;;;;;18.50;12.30;;;;;;;8.12;57.99;99647.27;115332;1199;103038;-77
2021/04/22 02:55:32;;;;;;;22.20;15.43;;;;;;;8.10;57.95;99638.69;115353;1199;103025;-78
2021/04/22 02:58:20;;;;;;;;;;;;;;;8.09;58.30;99634.39;115416;1205;103104;-77
2021/04/22 03:00:47;;;;;;;17.23;11.87;;;;;;;8.09;58.65;99631.80;115257;1199;103111;-78
2021/04/22 03:03:15;;;;;;;13.33;10.60;;;;;;;8.09;58.58;99611.02;115560;1199;102974;-76
2021/04/22 03:05:43;;;;;;;14.13;10.47;;;;;;;8.09;58.35;99618.81;115296;1198;103188;-77
2021/04/22 03:08:10;;;;;;;13.87;9.90;;;;;;;8.07;58.47;99607.59;115491;1200;103104;-78
2021/04/22 03:10:38;;;;;;;15.43;10.10;;;;;;;8.04;58.13;99592.11;115297;1199;103072;-78
2021/04/22 03:13:06;;;;;;;14.03;10.20;;;;;;;8.03;58.26;99585.22;115298;1199;103085;-78
2021/04/22 03:15:34;;;;;;;14.17;9.60;;;;;;;8.03;58.23;99590.41;115339;1199;103095;-77
2021/04/22 03:18:03;;;;;;;15.77;9.90;;;;;;;8.04;58.15;99618.08;115332;1200;103136;-78
2021/04/22 03:20:31;;;;;;;12.30;8.90;;;;;;;8.02;58.25;99635.46;115600;1199;103012;-77
2021/04/22 03:22:58;;;;;;;11.27;8.30;;;;;;;8.00;57.93;99637.26;115316;1200;103489;-77
2021/04/22 03:25:27;;;;;;;10.73;8.50;;;;;;;8.00;58.12;99653.69;115313;1199;103021;-77
2021/04/22 03:27:55;;;;;;;12.30;8.30;;;;;;;7.99;57.82;99649.39;115566;1199;102995;-78
2021/04/22 03:30:26;;;;;;;11.00;7.87;;;;;;;8.01;57.80;99649.34;115298;1198;103012;-77
2021/04/22 03:32:54;;;;;;;10.43;7.10;;;;;;;8.01;58.01;99651.94;115332;1199;102996;-78
2021/04/22 03:35:22;;;;;;;11.45;7.25;;;;;;;8.01;57.51;99655.39;115591;1199;103015;-78
2021/04/22 03:37:50;;;;;;;10.63;7.33;;;;;;;8.01;57.68;99664.92;115229;1200;103068;-77
2021/04/22 03:40:19;;;;;;;11.53;7.50;;;;;;;7.98;57.48;99665.88;115319;1197;103019;-77
2021/04/22 03:42:46;;;;;;;10.73;6.90;;;;;;;7.96;57.15;99674.61;115292;1199;102819;-77
2021/04/22 03:45:14;;;;;;;11.07;6.23;;;;;;;7.91;56.92;99672.16;115266;1198;102987;-77
2021/04/22 03:47:43;;;;;;;11.23;6.13;;;;;;;7.87;56.77;99667.94;115336;1199;103102;-77
2021/04/22 03:50:13;;;;;;;8.50;5.60;;;;;;;7.81;57.09;99668.98;115349;1199;102986;-77
2021/04/22 03:52:41;;;;;;;8.57;5.40;;;;;;;7.77;56.71;99675.17;115391;1199;103025;-76
2021/04/22 03:55:10;;;;;;;9.83;5.60;;;;;;;7.77;56.81;99688.14;115378;1199;103024;-77
2021/04/22 03:57:37;;;;;;;12.70;6.10;;;;;;;7.76;56.75;99663.09;115324;1197;103025;-78
2021/04/22 04:00:11;;;;;;;8.47;5.20;;;;;;;7.73;56.75;99659.73;115267;1199;103088;-78
2021/04/22 04:02:38;;;;;;;12.93;6.10;;;;;;;7.69;57.30;99663.30;115308;1199;103140;-78
2021/04/22 04:05:07;;;;;;;7.25;4.90;;;;;;;7.64;57.74;99678.16;115296;1200;103209;-77
2021/04/22 04:07:35;;;;;;;10.10;5.57;;;;;;;7.57;58.01;99673.16;115307;1199;103050;-77
2021/04/22 04:10:07;;;;;;;10.20;5.50;;;;;;;7.52;58.30;99685.39;115398;1197;103124;-78
2021/04/22 04:12:34;;;;;;;9.90;5.50;;;;;;;7.44;59.15;99683.93;115275;1199;103478;-76
2021/04/22 04:15:02;;;;;;;11.30;6.00;;;;;;;7.35;59.07;99679.83;115307;1200;103191;-77
2021/04/22 04:17:29;;;;;;;10.23;6.00;;;;;;;7.27;59.00;99698.22;115557;1199;103031;-77
2021/04/22 04:19:57;;;;;;;12.80;7.47;;;;;;;7.16;59.25;99705.42;115508;1199;102961;-78
2021/04/22 04:22:24;;;;;;;15.33;6.67;;;;;;;7.09;59.38;99703.90;115308;1198;102976;-77
2021/04/22 04:24:51;;;;;;;8.28;5.85;;;;;;;7.02;59.45;99717.92;115614;1200;103098;-77
2021/04/22 04:27:18;;;;;;;9.73;5.90;;;;;;;6.93;60.33;99731.11;115246;1199;103159;-76
2021/04/22 04:29:46;;;;;;;11.27;5.90;;;;;;;6.83;60.40;99748.66;115309;1199;103035;-77
2021/04/22 04:32:14;;;;;;;9.03;5.50;;;;;;;6.74;60.62;99745.42;115344;1197;103101;-77
2021/04/22 04:34:42;;;;;;;9.35;5.30;;;;;;;6.65;60.88;99751.70;115372;1199;102977;-77
2021/04/22 04:37:09;;;;;;;9.77;5.40;;;;;;;6.58;61.61;99748.38;115584;1198;101461;-77
2021/04/22 04:39:36;;;;;;;12.40;6.23;;;;;;;6.54;61.77;99762.30;115366;1199;103021;-77
2021/04/22 04:42:03;;;;;;;10.30;5.20;;;;;;;6.50;62.29;99755.50;115503;1199;103053;-76
2021/04/22 04:44:31;;;;;;;10.17;5.33;;;;;;;6.47;62.26;99754.72;115310;1199;103070;-76
2021/04/22 04:46:58;;;;;;;11.30;6.70;;;;;;;6.44;62.85;99754.77;115360;1199;103108;-77
2021/04/22 04:49:25;;;;;;;9.37;5.73;;;;;;;6.39;62.26;99766.98;115447;1200;103171;-77
2021/04/22 04:51:52;;;;;;;11.43;6.97;;;;;;;6.33;63.24;99767.98;115299;1200;103147;-76
2021/04/22 04:54:20;;;;;;;11.57;7.00;;;;;;;6.25;62.61;99769.88;115672;1198;103075;-77
2021/04/22 04:56:47;;;;;;;8.87;5.77;;;;;;;6.20;63.05;99767.39;115301;1199;103005;-78
2021/04/22 04:59:14;;;;;;;10.33;5.37;;;;;;;6.12;62.62;99768.45;115307;1200;103056;-78
2021/04/22 05:01:41;;;;;;;8.47;4.60;;;;;;;6.09;63.26;99763.32;115287;1199;103033;-78
2021/04/22 05:04:08;;;;;;;8.97;4.80;;;;;;;6.09;63.27;99758.14;115333;1199;103098;-78
2021/04/22 05:06:37;;;;;;;10.97;4.33;;;;;;;6.05;63.06;99755.63;115250;1199;103089;-78
2021/04/22 05:09:05;;;;;;;9.47;3.80;;;;;;;6.05;63.37;99758.22;115310;1199;103066;-78
2021/04/22 05:11:32;;;;;;;10.13;3.90;;;;;;;6.08;63.34;99766.80;115286;1199;103162;-77
2021/04/22 05:13:59;;;;;;;8.67;4.00;;;;;;;6.10;63.65;99760.70;115301;1199;103172;-77
2021/04/22 05:16:26;;;;;;;9.77;3.70;;;;;;;6.17;63.46;99757.11;115322;1199;103101;-78
2021/04/22 05:18:53;;;;;;;12.38;3.98;;;;;;;6.21;62.78;99747.53;115288;1200;103092;-77
2021/04/22 05:21:20;;;;;;;10.17;3.77;;;;;;;6.24;62.68;99750.89;115298;1199;103079;-77
2021/04/22 05:23:48;;;;;;;9.63;4.33;;;;;;;6.27;62.79;99753.41;115298;1200;103018;-78
2021/04/22 05:26:19;;;;;;;8.33;3.93;;;;;;;6.35;62.76;99756.70;115322;1198;103028;-78
2021/04/22 05:28:46;;;;;;;8.10;3.90;;;;;;;6.42;62.56;99759.13;115382;1199;103033;-77
2021/04/22 05:31:14;;;;;;;7.03;3.90;;;;;;;6.46;62.46;99768.53;115550;1198;103076;-78
2021/04/22 05:33:41;;;;;;;7.30;3.80;;;;;;;6.50;62.47;99773.63;115323;1200;103037;-79
2021/04/22 05:36:09;;;;;;;8.03;3.90;;;;;;;6.61;62.42;99778.55;115320;1200;103097;-77
2021/04/22 05:38:38;;;;;;;9.97;3.97;;;;;;;6.71;62.25;99781.78;115289;1200;103069;-78
2021/04/22 05:41:05;;;;;;;9.27;3.87;;;;;;;6.84;62.52;99781.46;115300;1199;103130;-77
2021/04/22 05:43:33;;;;;;;9.07;3.77;;;;;;;6.95;62.01;99784.63;115278;1200;104306;-78
2021/04/22 05:46:00;;;;;;;8.00;3.88;;;;;;;6.97;62.24;99787.17;115287;1199;103487;-78
2021/04/22 05:48:28;;;;;;;7.20;3.87;;;;;;;6.95;62.01;99788.95;115282;1199;103094;-78
2021/04/22 05:50:55;;;;;;;8.25;3.90;;;;;;;6.91;61.70;99782.15;115262;1199;103017;-78
2021/04/22 05:53:22;;;;;;;11.03;4.10;;;;;;;6.96;61.88;99790.66;115312;1199;103078;-78
2021/04/22 05:55:49;;;;;;;6.20;3.87;;;;;;;7.00;61.54;99783.65;115307;1199;103452;-78
2021/04/22 05:58:16;;;;;;;7.17;3.47;;;;;;;7.08;61.37;99787.77;115308;1198;103018;-78
2021/04/22 06:00:44;;;;;;;7.60;3.40;;;;;;;7.20;61.38;99776.24;115281;1199;103070;-76
2021/04/22 06:03:12;;;;;;;6.87;3.30;;;;;;;7.26;61.08;99779.52;115549;1198;103225;-77
2021/04/22 06:05:40;;;;;;;6.87;3.37;;;;;;;7.28;60.63;99788.11;115592;1198;103021;-77
2021/04/22 06:08:11;;;;;;;8.07;3.50;;;;;;;7.28;60.17;99793.30;115349;1199;103082;-77
2021/04/22 06:10:38;;;;;;;10.37;3.60;;;;;;;7.32;60.47;99803.59;115329;1198;103076;-78
2021/04/22 06:13:08;;;;;;;5.10;2.80;;;;;;;7.32;59.92;99808.77;115364;1200;103169;-79
2021/04/22 06:15:36;;;;;;;7.33;3.47;;;;;;;7.30;60.26;99806.22;115288;1199;102855;-77
2021/04/22 06:18:04;;;;;;;9.63;3.93;;;;;;;7.29;60.56;99794.15;115294;1199;103005;-77
2021/04/22 06:20:31;;;;;;;8.80;3.27;;;;;;;7.26;59.94;99810.64;115272;1197;103094;-77
2021/04/22 06:23:11;;;;;;;9.53;3.67;;;;;;;7.28;60.18;99808.86;115346;1199;103615;-77
2021/04/22 06:25:38;;;;;;;8.13;3.90;;;;;;;7.34;60.32;99817.37;115321;1199;103172;-77
2021/04/22 06:28:05;;;;;;;8.27;4.13;;;;;;;7.48;60.38;99810.93;115299;1199;102980;-78
2021/04/22 06:30:32;;;;;;;7.35;4.15;;;;;;;8.07;59.81;99802.38;115318;1198;103126;-77
2021/04/22 06:33:00;;;;;;;8.00;4.43;;;;;;;8.38;59.14;99811.01;115410;1199;103175;-79
2021/04/22 06:35:27;;;;;;;9.23;4.93;;;;;;;8.58;58.74;99810.39;115331;1198;103110;-79
2021/04/22 06:37:55;;;;;;;9.50;4.10;;;;;;;8.87;57.60;99808.64;115326;1199;103050;-78
2021/04/22 06:40:24;;;;;;;8.50;3.98;;;;;;;9.16;57.15;99808.55;115247;1198;103216;-78
2021/04/22 06:42:53;;;;;;;9.57;4.77;;;;;;;9.41;55.90;99803.36;115315;1199;103114;-79
2021/04/22 06:45:21;;;;;;;10.83;3.60;;;;;;;9.57;55.06;99801.92;115304;1198;103123;-78
2021/04/22 06:47:48;;;;;;;11.00;3.40;;;;;;;9.86;54.29;99808.68;115328;1199;103114;-78
2021/04/22 06:50:20;;;;;;;8.97;4.30;;;;;;;10.20;53.51;99804.84;115347;1199;102995;-77
2021/04/22 06:52:48;;;;;;;10.17;4.50;;;;;;;10.99;52.41;99806.14;115331;1199;103201;-78
2021/04/22 06:55:24;;;;;;;7.77;3.60;;;;;;;11.47;51.55;99801.45;115297;1198;103620;-78
2021/04/22 06:57:59;;;;;;;6.67;3.10;;;;;;;11.81;49.94;99805.25;115343;1198;103049;-78
2021/04/22 07:00:31;;;;;;;8.23;3.37;;;;;;;12.20;49.20;99804.38;115345;1200;102986;-79
2021/04/22 07:02:58;;;;;;;8.87;3.00;;;;;;;12.34;48.63;99804.59;115329;1200;102125;-79
2021/04/22 07:05:26;;;;;;;7.53;3.10;;;;;;;12.27;47.11;99818.88;115360;1200;103207;-78
2021/04/22 07:07:53;;;;;;;7.80;3.50;;;;;;;11.92;46.33;99817.85;115303;1199;102967;-78
2021/04/22 07:10:22;;;;;;;9.67;2.90;;;;;;;11.83;46.17;99811.25;115301;1199;103043;-79
2021/04/22 07:12:49;;;;;;;8.57;2.60;;;;;;;11.87;46.03;99820.68;115417;1198;103529;-78
2021/04/22 07:15:17;;;;;;;9.00;2.70;;;;;;;11.86;45.83;99825.97;115325;1200;103095;-79
2021/04/22 07:17:50;;;;;;;10.65;3.30;;;;;;;12.21;45.42;99816.52;115297;1199;103245;-78
2021/04/22 07:20:20;;;;;;;7.97;2.67;;;;;;;12.64;44.98;99824.09;115384;1200;103021;-79
2021/04/22 07:22:58;;;;;;;7.57;2.63;;;;;;;13.05;41.77;99829.09;115351;1199;103024;-79
2021/04/22 07:25:33;;;;;;;10.77;2.63;;;;;;;13.06;39.25;99828.17;115543;1198;103094;-78
2021/04/22 07:28:09;;;;;;;5.47;2.27;;;;;;;13.07;38.21;99842.95;115307;1198;103006;-78
2021/04/22 07:30:37;;;;;;;12.10;2.53;;;;;;;13.25;38.72;99834.23;115320;1199;103149;-79
2021/04/22 07:33:06;;;;;;;9.80;2.70;;;;;;;13.26;37.36;99833.30;115377;1199;103046;-78
2021/04/22 07:35:36;;;;;;;9.25;2.65;;;;;;;13.23;37.16;99838.70;115358;1197;102971;-78
2021/04/22 07:38:05;;;;;;;7.90;2.40;;;;;;;13.19;37.45;99847.64;115328;1199;103021;-79
2021/04/22 07:40:32;;;;;;;7.77;2.67;;;;;;;13.09;36.88;99843.73;115301;1199;103024;-79
2021/04/22 07:42:59;;;;;;;9.47;2.50;;;;;;;13.15;37.06;99848.69;115308;1199;103149;-78
2021/04/22 07:45:31;;;;;;;7.13;2.77;;;;;;;13.41;36.01;99857.89;115362;1199;103057;-78
2021/04/22 07:48:08;;;;;;;7.93;3.03;;;;;;;13.70;36.70;99840.71;115335;1200;103102;-78
2021/04/22 07:50:37;;;;;;;9.20;2.80;;;;;;;13.94;37.11;99856.09;115542;1197;103034;-78
2021/04/22 07:53:07;;;;;;;8.33;2.60;;;;;;;14.21;36.71;99852.02;115369;1198;103117;-79
2021/04/22 07:55:44;;;;;;;7.43;2.80;;;;;;;14.56;36.66;99851.94;115348;1198;103014;-79
2021/04/22 07:58:13;;;;;;;12.93;3.30;;;;;;;14.84;35.97;99849.45;115328;1198;103040;-79
2021/04/22 08:00:43;;;;;;;11.17;2.90;;;;;;;15.09;34.31;99855.04;115430;1199;103076;-78
2021/04/22 08:03:16;;;;;;;8.75;2.50;;;;;;;15.31;34.93;99853.80;115383;1197;102992;-78
2021/04/22 08:05:46;;;;;;;11.67;2.80;;;;;;;15.67;34.50;99851.69;115342;1199;103014;-78
2021/04/22 08:08:15;;;;;;;7.43;3.20;;;;;;;15.89;33.58;99847.77;115351;1199;102886;-79
2021/04/22 08:10:46;;;;;;;11.45;3.10;;;;;;;16.09;32.75;99831.61;115376;1199;103031;-78
2021/04/22 08:13:15;;;;;;;7.33;2.70;;;;;;;16.44;32.70;99847.00;115289;1199;103008;-78
2021/04/22 08:15:44;;;;;;;6.43;2.30;;;;;;;16.71;31.51;99844.46;115377;1199;103031;-78
2021/04/22 08:18:12;;;;;;;7.73;2.73;;;;;;;16.77;30.68;99860.70;115393;1198;103021;-79
2021/04/22 08:20:40;;;;;;;7.20;2.50;;;;;;;16.68;31.43;99857.80;115342;1198;103143;-78
2021/04/22 08:23:09;;;;;;;9.23;2.17;;;;;;;16.96;29.74;99854.25;115640;1200;103089;-79
2021/04/22 08:25:48;;;;;;;8.40;2.90;;;;;;;17.48;29.06;99852.52;115379;1199;103105;-79
2021/04/22 08:28:19;;;;;;;6.40;2.93;;;;;;;18.33;29.62;99876.66;115351;1199;103034;-78
2021/04/22 08:30:48;;;;;;;9.50;3.93;;;;;;;19.33;27.18;99856.16;115343;1197;103014;-79
2021/04/22 08:33:21;;;;;;;11.05;3.60;;;;;;;19.77;26.83;99846.71;115317;1200;102986;-79
2021/04/22 08:35:50;;;;;;;10.20;3.33;;;;;;;20.13;26.79;99858.06;115348;1199;103053;-80
2021/04/22 08:38:19;;;;;;;10.10;4.00;;;;;;;20.48;26.11;99832.33;115345;1199;102982;-78
2021/04/22 08:40:48;;;;;;;10.17;4.17;;;;;;;21.03;25.95;99858.84;115294;1198;103155;-80
2021/04/22 08:43:15;;;;;;;8.70;3.17;;;;;;;21.41;25.06;99864.51;115391;1198;103020;-80
2021/04/22 08:45:43;;;;;;;8.30;2.45;;;;;;;21.69;25.04;99863.02;115258;1199;103101;-79
2021/04/22 08:48:12;;;;;;;9.43;2.30;;;;;;;21.82;22.82;99851.38;115331;1199;102902;-78
2021/04/22 08:50:46;;;;;;;6.13;2.60;;;;;;;21.96;23.72;99864.32;115310;1199;102976;-79
2021/04/22 08:53:21;;;;;;;11.50;3.20;;;;;;;22.23;23.12;99856.65;115363;1197;103024;-78
2021/04/22 08:55:48;;;;;;;8.90;2.50;;;;;;;22.34;22.27;99854.89;115263;1199;103045;-78
2021/04/22 08:58:15;;;;;;;10.07;2.33;;;;;;;22.53;23.49;99862.93;115247;1198;103123;-78
2021/04/22 09:00:55;;;;;;;8.60;2.88;;;;;;;23.01;23.22;99863.09;115218;1199;103028;-79
2021/04/22 09:03:23;;;;;;;8.30;2.57;;;;;;;23.19;20.56;99850.78;115313;1199;103650;-78
2021/04/22 09:05:51;;;;;;;8.10;3.20;;;;;;;22.92;21.53;99863.89;115340;1198;103133;-77
2021/04/22 09:08:30;;;;;;;7.10;2.70;;;;;;;22.85;22.67;99860.12;115326;1199;103098;-77
2021/04/22 09:10:58;;;;;;;6.85;2.60;;;;;;;22.85;22.21;99873.41;115433;1199;103195;-77
2021/04/22 09:13:26;;;;;;;9.70;2.97;;;;;;;22.94;21.85;99877.05;115357;1199;103171;-78
2021/04/22 09:16:02;;;;;;;8.00;2.93;;;;;;;22.90;22.08;99873.83;115285;1199;103044;-78
2021/04/22 09:18:36;;;;;;;;;;;;;;;22.89;21.06;99870.33;115296;1205;103065;-79
2021/04/22 09:21:03;;;;;;;8.80;2.80;;;;;;;22.79;20.68;99874.74;115427;1199;103424;-78
2021/04/22 09:23:31;;;;;;;8.40;2.60;;;;;;;22.79;20.68;99863.27;115390;1198;103519;-78
2021/04/22 09:26:05;;;;;;;9.50;2.80;;;;;;;22.62;21.01;99867.42;115234;1199;103075;-79
2021/04/22 09:28:42;;;;;;;10.57;3.17;;;;;;;22.46;20.73;99872.43;115198;1199;103008;-79
2021/04/22 09:31:22;;;;;;;11.75;3.45;;;;;;;22.33;21.31;99867.33;115406;1199;103056;-79
2021/04/22 09:34:06;;;;;;;9.23;3.23;;;;;;;22.48;21.79;99871.31;115311;1199;103134;-79
2021/04/22 09:36:44;;;;;;;8.97;3.13;;;;;;;22.24;21.43;99866.30;115480;1197;102845;-79
2021/04/22 09:39:17;;;;;;;8.40;2.77;;;;;;;21.87;21.66;99870.41;115320;1198;102845;-79
2021/04/22 09:41:45;;;;;;;10.63;3.17;;;;;;;21.69;21.49;99867.48;115350;1198;103118;-78
2021/04/22 09:44:14;;;;;;;11.63;3.43;;;;;;;21.58;22.59;99880.84;115309;1199;102995;-79
2021/04/22 09:46:44;;;;;;;11.90;3.57;;;;;;;21.68;21.45;99871.11;115247;1199;103025;-77
2021/04/22 09:49:14;;;;;;;10.03;3.23;;;;;;;21.53;20.49;99883.85;115199;1199;103216;-78
2021/04/22 09:51:42;;;;;;;7.37;3.10;;;;;;;21.29;21.25;99891.20;115305;1197;103038;-78
2021/04/22 09:54:18;;;;;;;8.00;2.83;;;;;;;21.15;21.48;99879.03;115339;1199;103175;-79
2021/04/22 09:56:55;;;;;;;5.85;2.68;;;;;;;21.34;22.11;99873.92;115336;1200;103027;-78
2021/04/22 09:59:27;;;;;;;;;;;;;;;21.16;22.00;99877.22;115313;1205;103140;-79
2021/04/22 10:02:03;;;;;;;11.17;3.13;;;;;;;21.11;23.05;99878.45;115592;1200;103124;-78
2021/04/22 10:04:36;;;;;;;11.37;3.03;;;;;;;21.52;22.23;99878.67;115355;1197;103011;-78
2021/04/22 10:07:05;;;;;;;8.90;2.90;;;;;;;21.55;21.91;99887.25;115298;1199;103003;-78
2021/04/22 10:09:36;;;;;;;6.77;2.37;;;;;;;21.30;21.67;99869.01;115309;1200;102973;-79
2021/04/22 10:12:09;;;;;;;10.07;3.27;;;;;;;21.26;22.15;99862.28;115337;1199;103018;-79
2021/04/22 10:14:37;;;;;;;6.30;2.50;;;;;;;20.70;21.46;99862.41;115412;1200;103259;-78
2021/04/22 10:17:22;;;;;;;9.93;2.80;;;;;;;20.26;22.56;99868.52;115531;1199;103063;-78
2021/04/22 10:20:16;;;;;;;10.60;3.00;;;;;;;20.19;23.20;99862.88;115368;1199;103031;-78
2021/04/22 10:22:46;;;;;;;11.63;3.13;;;;;;;20.04;23.05;99866.70;115322;1198;103096;-78
2021/04/22 10:25:16;;;;;;;7.23;2.87;;;;;;;19.88;23.34;99870.53;115537;1200;104884;-78
2021/04/22 10:27:44;;;;;;;8.00;2.43;;;;;;;19.46;22.79;99868.47;115548;1197;103092;-78
2021/04/22 10:30:15;;;;;;;6.30;2.30;;;;;;;18.73;23.11;99871.22;115323;1198;103191;-78
2021/04/22 10:32:44;;;;;;;10.37;2.90;;;;;;;18.38;23.77;99866.61;115299;1199;103208;-77
2021/04/22 10:35:24;;;;;;;11.90;3.00;;;;;;;17.95;24.84;99866.09;115379;1199;103031;-79
2021/04/22 10:37:53;;;;;;;4.83;2.60;;;;;;;17.79;24.41;99876.88;115329;1200;103053;-78
2021/04/22 10:40:27;;;;;;;6.97;2.57;;;;;;;17.93;24.71;99860.08;115271;1200;103021;-78
2021/04/22 10:42:57;;;;;;;10.30;2.67;;;;;;;17.72;24.37;99860.59;115287;1199;102876;-78
2021/04/22 10:45:26;;;;;;;5.90;2.30;;;;;;;17.19;24.26;99862.34;115279;1198;103108;-78
2021/04/22 10:47:54;;;;;;;11.50;2.80;;;;;;;16.51;25.16;99870.20;115344;1199;103012;-78
2021/04/22 10:50:28;;;;;;;9.00;2.83;;;;;;;15.88;26.02;99870.59;115272;1198;103078;-79
2021/04/22 10:53:07;;;;;;;8.17;2.60;;;;;;;15.47;26.51;99875.63;115257;1200;103028;-78
2021/04/22 10:55:37;;;;;;;6.07;2.37;;;;;;;14.90;26.89;99901.66;115316;1199;103024;-79
2021/04/22 10:58:25;;;;;;;8.60;3.03;;;;;;;14.62;27.66;99890.95;115332;1199;103118;-79
2021/04/22 11:00:55;;;;;;;6.67;2.80;;;;;;;14.58;27.97;99873.69;115296;1199;103025;-78
2021/04/22 11:03:42;;;;;;;8.63;3.20;;;;;;;14.39;28.19;99894.80;115398;1199;103245;-78
2021/04/22 11:06:17;;;;;;;6.83;3.00;;;;;;;14.56;28.98;99886.05;115283;1199;103453;-79
2021/04/22 11:08:48;;;;;;;12.30;3.63;;;;;;;14.80;28.74;99897.83;115289;1198;103524;-78
2021/04/22 11:11:34;;;;;;;7.07;3.30;;;;;;;14.99;28.75;99895.88;115553;1199;103104;-78
2021/04/22 11:14:13;;;;;;;9.10;3.50;;;;;;;15.12;28.46;99893.41;115260;1199;103022;-78
2021/04/22 11:17:00;;;;;;;10.43;3.67;;;;;;;15.05;28.81;99900.77;115323;1199;103188;-77
2021/04/22 11:19:54;;;;;;;;;;;;;;;14.88;28.99;99892.14;115540;1205;102992;-77
2021/04/22 11:22:28;;;;;;;7.73;3.20;;;;;;;14.80;29.25;99887.33;115515;1200;103156;-78
2021/04/22 11:25:02;;;;;;;7.13;3.20;;;;;;;14.87;29.08;99886.04;115340;1199;103168;-79
2021/04/22 11:27:44;;;;;;;10.20;3.40;;;;;;;14.89;29.27;99892.05;115289;1200;102973;-78
2021/04/22 11:30:12;;;;;;;7.93;3.17;;;;;;;14.94;29.30;99887.41;115539;1200;103012;-78